Impacts METAR Board
IDs:

KRWV - Caldwell Muni, TX, US

Updated at: 0200 UTC 15 Aug 2020
Potential Impact None Slight Moderate High
Time 14/14Z 14/15Z 14/16Z 14/17Z 14/18Z 14/19Z 14/20Z 14/21Z 14/22Z 14/23Z 15/00Z 15/01Z 15/02Z
Temp82 87 90 94 96 99 100 102 102 101 98 94 91
Dewpt75 72 69 69 67 66 63 63 64 65 64 70 71
Altim29.96 29.96 29.97 29.96 29.94 29.92 29.89 29.87 29.85 29.83 29.83 29.84 29.85
VIS10 10 10 10 10 10 10 10 10 10 10 10 10
CIG-- -- -- -- -- -- -- -- -- -- -- -- --
CoverSCTCLRCLRCLRCLRCLRCLRCLRCLRCLRCLRCLRCLR
FltCatVFRVFRVFRVFRVFRVFRVFRVFRVFRVFRVFRVFRVFR
WX--------------------------
WDir230220210180190220120210190180160140150
WSpd12 11 9 11 8 10 5 8 10 11 12 10 9
WGst-- 16 15 16 -- -- -- -- 16 -- -- -- --
Raw hourly METARs
KRWV 141355Z AUTO 23012KT 10SM SCT013 28/24 A2996 RMK AO2
KRWV 141455Z AUTO 22011G16KT 10SM CLR 30/22 A2996 RMK AO2 T03030221
KRWV 141555Z AUTO 21009G15KT 10SM CLR 32/21 A2997 RMK AO2 T03230207
KRWV 141655Z AUTO 18011G16KT 10SM CLR 34/20 A2996 RMK AO2 T03420203
KRWV 141755Z AUTO 19008KT 10SM CLR 36/19 A2994 RMK AO2 T03570195 10361 20252
KRWV 141855Z AUTO 22010KT 160V230 10SM CLR 37/19 A2992 RMK AO2 T03720187
KRWV 141955Z AUTO 12005KT 10SM CLR 37/17 A2989 RMK AO2 T03750174
KRWV 142055Z AUTO 21008KT 10SM CLR 39/17 A2987 RMK AO2 T03870172
KRWV 142155Z AUTO 19010G16KT 10SM CLR 39/18 A2985 RMK AO2 T03890179
KRWV 142255Z AUTO 18011KT 10SM CLR 38/18 A2983 RMK AO2 T03820182
KRWV 142355Z AUTO 16012KT 10SM CLR 37/18 A2983 RMK AO2 T03690177 10395 20353 403950252
KRWV 150055Z AUTO 14010KT 10SM CLR 35/21 A2984 RMK AO2 T03450210
KRWV 150155Z AUTO 15009KT 10SM CLR 33/21 A2985 RMK AO2 T03260214